Página principal
METAR-TAF:

METAR-TAF

Aeroportos :

Helsínquia, Finlândia

Aeroporto de Helsínquia-Vantaa

latitude: 60-19N, longitude: 024-58E, altura: 51 m

Observação actual do tempo

O boletim foi feito há 10 minutos, às 10:50 UTC
Vento 11 kt de oeste
Temperatura 8°C
Humidade 76%
Pressão 1004 hPa
Visibilidade 10 km ou mais
Poucas nuvensa uma altura de 1800 ft
Nuvens fragmentadasa uma altura de 3500 ft

METAR: EFHK 181050Z 27011KT 9999 FEW018 BKN035 08/04 Q1004 NOSIG

Hora: 14:00 (11:00 UTC)

Previsão

O boletim foi feito há 2 horas e 38 minutos, às 08:22 UTC
Previsão válida de 18 às 09 UTC a 19 às 09 UTC
Vento 10 kt de noroeste
Visibilidade 10 km ou mais
Poucas nuvensa uma altura de 1000 ft
Nuvens fragmentadasa uma altura de 1500 ft
Temporariamente
de 18 às 09 UTC a 18 às 10 UTC
Nuvens fragmentadasa uma altura de 1200 ft

TAF: EFHK 180822Z 1809/1909 32010KT 9999 FEW010 BKN015 TEMPO 1809/1810 BKN012

Observações e previsões do tempo de mais de 4000 aeroportos (mensagens METAR e TAF).

As estações disponíveis são os pontos amarelos e vermelhos sobre o mapa.

Mova o rato sobre o mapa para ver o nome da estação.

Depois clique no ponto para visualizar as observações e previsões meteorológicas.

Para alterar o mapa : clique nos botões verdes com uma cruz preta para aumentar o zoom; no botão verde com uma pitada de zoom; ou nas setas verdes para mapas adjacentes.


METAR-TAF: